sensor_id;sensor_type;location;lat;lon;timestamp;temperature;humidity
62904;DHT22;49000;50.698;13.322;2023-10-13T00:01:01;14.30;99.90
62904;DHT22;49000;50.698;13.322;2023-10-13T00:03:30;14.30;99.90
62904;DHT22;49000;50.698;13.322;2023-10-13T00:05:58;14.40;99.90
62904;DHT22;49000;50.698;13.322;2023-10-13T00:08:28;14.30;99.90
62904;DHT22;49000;50.698;13.322;2023-10-13T00:10:54;14.30;99.90
62904;DHT22;49000;50.698;13.322;2023-10-13T00:13:26;14.30;99.90
62904;DHT22;49000;50.698;13.322;2023-10-13T00:15:52;14.30;99.90
62904;DHT22;49000;50.698;13.322;2023-10-13T00:18:17;14.30;99.90
62904;DHT22;49000;50.698;13.322;2023-10-13T00:20:44;14.30;99.90
62904;DHT22;49000;50.698;13.322;2023-10-13T00:23:16;14.30;99.90
62904;DHT22;49000;50.698;13.322;2023-10-13T00:25:47;14.40;99.90
62904;DHT22;49000;50.698;13.322;2023-10-13T00:28:26;14.40;99.90
62904;DHT22;49000;50.698;13.322;2023-10-13T00:31:11;14.40;99.90
62904;DHT22;49000;50.698;13.322;2023-10-13T00:33:38;14.40;99.90
62904;DHT22;49000;50.698;13.322;2023-10-13T00:36:05;14.40;99.90
62904;DHT22;49000;50.698;13.322;2023-10-13T00:38:32;14.40;99.90
62904;DHT22;49000;50.698;13.322;2023-10-13T00:40:58;14.40;99.90
62904;DHT22;49000;50.698;13.322;2023-10-13T00:43:29;14.40;99.90
62904;DHT22;49000;50.698;13.322;2023-10-13T00:45:59;14.40;99.90
62904;DHT22;49000;50.698;13.322;2023-10-13T00:48:29;14.40;99.90
62904;DHT22;49000;50.698;13.322;2023-10-13T00:50:59;14.40;99.90
62904;DHT22;49000;50.698;13.322;2023-10-13T00:53:29;14.40;99.90
62904;DHT22;49000;50.698;13.322;2023-10-13T00:55:56;14.50;99.90
62904;DHT22;49000;50.698;13.322;2023-10-13T00:58:22;14.50;99.90
62904;DHT22;49000;50.698;13.322;2023-10-13T01:00:49;14.50;99.90
62904;DHT22;49000;50.698;13.322;2023-10-13T01:03:22;14.50;99.90
62904;DHT22;49000;50.698;13.322;2023-10-13T01:05:56;14.50;99.90
62904;DHT22;49000;50.698;13.322;2023-10-13T01:08:33;14.50;99.90
62904;DHT22;49000;50.698;13.322;2023-10-13T01:11:03;14.50;99.90
62904;DHT22;49000;50.698;13.322;2023-10-13T01:13:32;14.40;99.90
62904;DHT22;49000;50.698;13.322;2023-10-13T01:16:01;14.50;99.90
62904;DHT22;49000;50.698;13.322;2023-10-13T01:18:26;14.50;99.90
62904;DHT22;49000;50.698;13.322;2023-10-13T01:20:54;14.50;99.90
62904;DHT22;49000;50.698;13.322;2023-10-13T01:23:25;14.50;99.90
62904;DHT22;49000;50.698;13.322;2023-10-13T01:25:54;14.50;99.90
62904;DHT22;49000;50.698;13.322;2023-10-13T01:28:21;14.50;99.90
62904;DHT22;49000;50.698;13.322;2023-10-13T01:30:47;14.60;99.90
62904;DHT22;49000;50.698;13.322;2023-10-13T01:33:19;14.60;99.90
62904;DHT22;49000;50.698;13.322;2023-10-13T01:35:52;14.60;99.90
62904;DHT22;49000;50.698;13.322;2023-10-13T01:38:18;14.60;99.90
62904;DHT22;49000;50.698;13.322;2023-10-13T01:40:44;14.60;99.90
62904;DHT22;49000;50.698;13.322;2023-10-13T01:43:09;14.60;99.90
62904;DHT22;49000;50.698;13.322;2023-10-13T01:45:40;14.50;99.90
62904;DHT22;49000;50.698;13.322;2023-10-13T01:48:12;14.50;99.90
62904;DHT22;49000;50.698;13.322;2023-10-13T01:50:41;14.50;99.90
62904;DHT22;49000;50.698;13.322;2023-10-13T01:53:07;14.50;99.90
62904;DHT22;49000;50.698;13.322;2023-10-13T01:55:40;14.50;99.90
62904;DHT22;49000;50.698;13.322;2023-10-13T01:58:13;14.50;99.90
62904;DHT22;49000;50.698;13.322;2023-10-13T02:00:45;14.50;99.90
62904;DHT22;49000;50.698;13.322;2023-10-13T02:03:13;14.50;99.90
62904;DHT22;49000;50.698;13.322;2023-10-13T02:05:46;14.50;99.90
62904;DHT22;49000;50.698;13.322;2023-10-13T02:08:19;14.50;99.90
62904;DHT22;49000;50.698;13.322;2023-10-13T02:10:51;14.50;99.90
62904;DHT22;49000;50.698;13.322;2023-10-13T02:13:18;14.50;99.90
62904;DHT22;49000;50.698;13.322;2023-10-13T02:15:45;14.50;99.90
62904;DHT22;49000;50.698;13.322;2023-10-13T02:18:16;14.50;99.90
62904;DHT22;49000;50.698;13.322;2023-10-13T02:21:03;14.50;99.90
62904;DHT22;49000;50.698;13.322;2023-10-13T02:23:37;14.60;99.90
62904;DHT22;49000;50.698;13.322;2023-10-13T02:26:08;14.60;99.90
62904;DHT22;49000;50.698;13.322;2023-10-13T02:28:42;14.60;99.90
62904;DHT22;49000;50.698;13.322;2023-10-13T02:31:09;14.60;99.90
62904;DHT22;49000;50.698;13.322;2023-10-13T02:33:36;14.60;99.90
62904;DHT22;49000;50.698;13.322;2023-10-13T02:36:10;14.60;99.90
62904;DHT22;49000;50.698;13.322;2023-10-13T02:38:37;14.70;99.90
62904;DHT22;49000;50.698;13.322;2023-10-13T02:41:03;14.60;99.90
62904;DHT22;49000;50.698;13.322;2023-10-13T02:43:34;14.60;99.90
62904;DHT22;49000;50.698;13.322;2023-10-13T02:45:59;14.60;99.90
62904;DHT22;49000;50.698;13.322;2023-10-13T02:48:26;14.60;99.90
62904;DHT22;49000;50.698;13.322;2023-10-13T02:50:57;14.60;99.90
62904;DHT22;49000;50.698;13.322;2023-10-13T02:53:23;14.60;99.90
62904;DHT22;49000;50.698;13.322;2023-10-13T02:55:53;14.60;99.90
62904;DHT22;49000;50.698;13.322;2023-10-13T02:58:18;14.60;99.90
62904;DHT22;49000;50.698;13.322;2023-10-13T03:00:44;14.50;99.90
62904;DHT22;49000;50.698;13.322;2023-10-13T03:03:11;14.60;99.90
62904;DHT22;49000;50.698;13.322;2023-10-13T03:05:40;14.60;99.90
62904;DHT22;49000;50.698;13.322;2023-10-13T03:08:07;14.50;99.90
62904;DHT22;49000;50.698;13.322;2023-10-13T03:10:34;14.50;99.90
62904;DHT22;49000;50.698;13.322;2023-10-13T03:13:05;14.50;99.90
62904;DHT22;49000;50.698;13.322;2023-10-13T03:15:33;14.50;99.90
62904;DHT22;49000;50.698;13.322;2023-10-13T03:18:01;14.50;99.90
62904;DHT22;49000;50.698;13.322;2023-10-13T03:20:27;14.50;99.90
62904;DHT22;49000;50.698;13.322;2023-10-13T03:22:59;14.50;99.90
62904;DHT22;49000;50.698;13.322;2023-10-13T03:25:25;14.50;99.90
62904;DHT22;49000;50.698;13.322;2023-10-13T03:27:53;14.50;99.90
62904;DHT22;49000;50.698;13.322;2023-10-13T03:30:19;14.50;99.90
62904;DHT22;49000;50.698;13.322;2023-10-13T03:32:47;14.50;99.90
62904;DHT22;49000;50.698;13.322;2023-10-13T03:35:15;14.60;99.90
62904;DHT22;49000;50.698;13.322;2023-10-13T03:37:53;14.50;99.90
62904;DHT22;49000;50.698;13.322;2023-10-13T03:40:20;14.60;99.90
62904;DHT22;49000;50.698;13.322;2023-10-13T03:43:06;14.60;99.90
62904;DHT22;49000;50.698;13.322;2023-10-13T03:45:37;14.60;99.90
62904;DHT22;49000;50.698;13.322;2023-10-13T03:48:11;14.50;99.90
62904;DHT22;49000;50.698;13.322;2023-10-13T03:50:46;14.50;99.90
62904;DHT22;49000;50.698;13.322;2023-10-13T03:53:13;14.50;99.90
62904;DHT22;49000;50.698;13.322;2023-10-13T03:55:39;14.50;99.90
62904;DHT22;49000;50.698;13.322;2023-10-13T03:58:05;14.50;99.90
62904;DHT22;49000;50.698;13.322;2023-10-13T04:00:32;14.50;99.90
62904;DHT22;49000;50.698;13.322;2023-10-13T04:02:58;14.50;99.90
62904;DHT22;49000;50.698;13.322;2023-10-13T04:05:41;14.50;99.90
62904;DHT22;49000;50.698;13.322;2023-10-13T04:08:12;14.50;99.90
62904;DHT22;49000;50.698;13.322;2023-10-13T04:10:53;14.50;99.90
62904;DHT22;49000;50.698;13.322;2023-10-13T04:13:19;14.50;99.90
62904;DHT22;49000;50.698;13.322;2023-10-13T04:16:04;14.50;99.90
62904;DHT22;49000;50.698;13.322;2023-10-13T04:19:02;14.50;99.90
62904;DHT22;49000;50.698;13.322;2023-10-13T04:21:27;14.40;99.90
62904;DHT22;49000;50.698;13.322;2023-10-13T04:24:09;14.40;99.90
62904;DHT22;49000;50.698;13.322;2023-10-13T04:27:01;14.40;99.90
62904;DHT22;49000;50.698;13.322;2023-10-13T04:30:04;14.40;99.90
62904;DHT22;49000;50.698;13.322;2023-10-13T04:32:33;14.40;99.90
62904;DHT22;49000;50.698;13.322;2023-10-13T04:35:04;14.30;99.90
62904;DHT22;49000;50.698;13.322;2023-10-13T04:37:44;14.30;99.90
62904;DHT22;49000;50.698;13.322;2023-10-13T04:40:24;14.30;99.90
62904;DHT22;49000;50.698;13.322;2023-10-13T04:42:51;14.30;99.90
62904;DHT22;49000;50.698;13.322;2023-10-13T04:45:23;14.20;99.90
62904;DHT22;49000;50.698;13.322;2023-10-13T04:48:01;14.20;99.90
62904;DHT22;49000;50.698;13.322;2023-10-13T04:50:47;14.20;99.90
62904;DHT22;49000;50.698;13.322;2023-10-13T04:53:16;14.20;99.90
62904;DHT22;49000;50.698;13.322;2023-10-13T04:56:20;14.20;99.90
62904;DHT22;49000;50.698;13.322;2023-10-13T04:59:04;14.20;99.90
62904;DHT22;49000;50.698;13.322;2023-10-13T05:02:01;14.20;99.90
62904;DHT22;49000;50.698;13.322;2023-10-13T05:04:45;14.20;99.90
62904;DHT22;49000;50.698;13.322;2023-10-13T05:07:29;14.20;99.90
62904;DHT22;49000;50.698;13.322;2023-10-13T05:10:18;14.20;99.90
62904;DHT22;49000;50.698;13.322;2023-10-13T05:13:03;14.20;99.90
62904;DHT22;49000;50.698;13.322;2023-10-13T05:15:48;14.20;99.90
62904;DHT22;49000;50.698;13.322;2023-10-13T05:18:32;14.20;99.90
62904;DHT22;49000;50.698;13.322;2023-10-13T05:21:17;14.10;99.90
62904;DHT22;49000;50.698;13.322;2023-10-13T05:24:01;14.10;99.90
62904;DHT22;49000;50.698;13.322;2023-10-13T05:26:45;14.10;99.90
62904;DHT22;49000;50.698;13.322;2023-10-13T05:29:29;14.20;99.90
62904;DHT22;49000;50.698;13.322;2023-10-13T05:32:13;14.20;99.90
62904;DHT22;49000;50.698;13.322;2023-10-13T05:34:57;14.20;99.90
62904;DHT22;49000;50.698;13.322;2023-10-13T05:37:41;14.20;99.90
62904;DHT22;49000;50.698;13.322;2023-10-13T05:40:25;14.20;99.90
62904;DHT22;49000;50.698;13.322;2023-10-13T05:43:09;14.20;99.90
62904;DHT22;49000;50.698;13.322;2023-10-13T05:46:00;14.20;99.90
62904;DHT22;49000;50.698;13.322;2023-10-13T05:48:44;14.20;99.90
62904;DHT22;49000;50.698;13.322;2023-10-13T05:51:31;14.30;99.90
62904;DHT22;49000;50.698;13.322;2023-10-13T05:54:13;14.30;99.90
62904;DHT22;49000;50.698;13.322;2023-10-13T05:56:45;14.30;99.90
62904;DHT22;49000;50.698;13.322;2023-10-13T05:59:31;14.40;99.90
62904;DHT22;49000;50.698;13.322;2023-10-13T06:02:17;14.40;99.90
62904;DHT22;49000;50.698;13.322;2023-10-13T06:05:20;14.40;99.90
62904;DHT22;49000;50.698;13.322;2023-10-13T06:08:04;14.40;99.90
62904;DHT22;49000;50.698;13.322;2023-10-13T06:10:49;14.50;99.90
62904;DHT22;49000;50.698;13.322;2023-10-13T06:13:33;14.50;99.90
62904;DHT22;49000;50.698;13.322;2023-10-13T06:16:17;14.60;99.90
62904;DHT22;49000;50.698;13.322;2023-10-13T06:19:02;14.60;99.90
62904;DHT22;49000;50.698;13.322;2023-10-13T06:21:46;14.70;99.90
62904;DHT22;49000;50.698;13.322;2023-10-13T06:24:30;14.70;99.90
62904;DHT22;49000;50.698;13.322;2023-10-13T06:27:15;14.70;99.90
62904;DHT22;49000;50.698;13.322;2023-10-13T06:29:59;14.80;99.90
62904;DHT22;49000;50.698;13.322;2023-10-13T06:32:26;14.80;99.90
62904;DHT22;49000;50.698;13.322;2023-10-13T06:34:55;14.90;99.90
62904;DHT22;49000;50.698;13.322;2023-10-13T06:37:27;14.90;99.90
62904;DHT22;49000;50.698;13.322;2023-10-13T06:40:12;14.90;99.90
62904;DHT22;49000;50.698;13.322;2023-10-13T06:42:56;14.90;99.90
62904;DHT22;49000;50.698;13.322;2023-10-13T06:45:38;15.00;99.90
62904;DHT22;49000;50.698;13.322;2023-10-13T06:48:04;15.00;99.90
62904;DHT22;49000;50.698;13.322;2023-10-13T06:50:30;15.10;99.90
62904;DHT22;49000;50.698;13.322;2023-10-13T06:53:04;15.20;99.90
62904;DHT22;49000;50.698;13.322;2023-10-13T06:55:30;15.20;99.90
62904;DHT22;49000;50.698;13.322;2023-10-13T06:58:01;15.20;99.90
62904;DHT22;49000;50.698;13.322;2023-10-13T07:00:27;15.30;99.90
62904;DHT22;49000;50.698;13.322;2023-10-13T07:03:00;15.40;99.90
62904;DHT22;49000;50.698;13.322;2023-10-13T07:05:39;15.40;99.90
62904;DHT22;49000;50.698;13.322;2023-10-13T07:08:08;15.50;99.90
62904;DHT22;49000;50.698;13.322;2023-10-13T07:10:34;15.60;99.90
62904;DHT22;49000;50.698;13.322;2023-10-13T07:13:21;15.70;99.90
62904;DHT22;49000;50.698;13.322;2023-10-13T07:15:47;15.70;99.90
62904;DHT22;49000;50.698;13.322;2023-10-13T07:18:16;15.80;99.90
62904;DHT22;49000;50.698;13.322;2023-10-13T07:20:44;15.80;99.90
62904;DHT22;49000;50.698;13.322;2023-10-13T07:23:13;15.90;99.90
62904;DHT22;49000;50.698;13.322;2023-10-13T07:25:53;15.90;99.90
62904;DHT22;49000;50.698;13.322;2023-10-13T07:28:30;16.00;99.90
62904;DHT22;49000;50.698;13.322;2023-10-13T07:30:57;16.10;99.90
62904;DHT22;49000;50.698;13.322;2023-10-13T07:33:43;16.10;99.90
62904;DHT22;49000;50.698;13.322;2023-10-13T07:36:09;16.10;99.90
62904;DHT22;49000;50.698;13.322;2023-10-13T07:38:45;16.20;99.90
62904;DHT22;49000;50.698;13.322;2023-10-13T07:41:15;16.30;99.90
62904;DHT22;49000;50.698;13.322;2023-10-13T07:43:47;16.30;99.90
62904;DHT22;49000;50.698;13.322;2023-10-13T07:46:15;16.40;99.90
62904;DHT22;49000;50.698;13.322;2023-10-13T07:48:41;16.40;99.90
62904;DHT22;49000;50.698;13.322;2023-10-13T07:51:10;16.50;1.00
62904;DHT22;49000;50.698;13.322;2023-10-13T07:53:39;16.60;1.00
62904;DHT22;49000;50.698;13.322;2023-10-13T07:56:06;16.70;1.00
62904;DHT22;49000;50.698;13.322;2023-10-13T07:58:34;16.70;1.00
62904;DHT22;49000;50.698;13.322;2023-10-13T08:01:00;16.80;1.00
62904;DHT22;49000;50.698;13.322;2023-10-13T08:03:33;16.80;1.00
62904;DHT22;49000;50.698;13.322;2023-10-13T08:06:13;16.80;99.90
62904;DHT22;49000;50.698;13.322;2023-10-13T08:08:39;16.90;99.90
62904;DHT22;49000;50.698;13.322;2023-10-13T08:11:15;17.00;99.90
62904;DHT22;49000;50.698;13.322;2023-10-13T08:13:51;17.20;99.90
62904;DHT22;49000;50.698;13.322;2023-10-13T08:16:23;17.10;99.90
62904;DHT22;49000;50.698;13.322;2023-10-13T08:18:53;17.20;99.90
62904;DHT22;49000;50.698;13.322;2023-10-13T08:21:19;17.20;99.90
62904;DHT22;49000;50.698;13.322;2023-10-13T08:23:57;17.20;99.90
62904;DHT22;49000;50.698;13.322;2023-10-13T08:26:27;17.30;99.90
62904;DHT22;49000;50.698;13.322;2023-10-13T08:29:00;17.40;99.90
62904;DHT22;49000;50.698;13.322;2023-10-13T08:31:45;17.40;99.90
62904;DHT22;49000;50.698;13.322;2023-10-13T08:34:31;17.50;99.90
62904;DHT22;49000;50.698;13.322;2023-10-13T08:37:07;17.60;99.90
62904;DHT22;49000;50.698;13.322;2023-10-13T08:39:52;17.60;99.90
62904;DHT22;49000;50.698;13.322;2023-10-13T08:42:44;17.70;99.90
62904;DHT22;49000;50.698;13.322;2023-10-13T08:45:15;17.80;99.90
62904;DHT22;49000;50.698;13.322;2023-10-13T08:47:50;17.90;99.90
62904;DHT22;49000;50.698;13.322;2023-10-13T08:50:44;17.90;99.90
62904;DHT22;49000;50.698;13.322;2023-10-13T08:53:19;18.00;99.90
62904;DHT22;49000;50.698;13.322;2023-10-13T08:56:05;18.10;99.90
62904;DHT22;49000;50.698;13.322;2023-10-13T08:58:42;18.10;99.90
62904;DHT22;49000;50.698;13.322;2023-10-13T09:06:56;18.10;87.20
62904;DHT22;49000;50.698;13.322;2023-10-13T09:09:31;18.20;91.10
62904;DHT22;49000;50.698;13.322;2023-10-13T09:12:15;18.20;75.10
62904;DHT22;49000;50.698;13.322;2023-10-13T09:14:43;18.10;38.20
62904;DHT22;49000;50.698;13.322;2023-10-13T09:17:22;18.10;49.50
62904;DHT22;49000;50.698;13.322;2023-10-13T09:20:01;18.10;65.40
62904;DHT22;49000;50.698;13.322;2023-10-13T09:22:46;18.10;8.60
62904;DHT22;49000;50.698;13.322;2023-10-13T09:25:30;18.10;3.40
62904;DHT22;49000;50.698;13.322;2023-10-13T09:28:03;18.10;1.00
62904;DHT22;49000;50.698;13.322;2023-10-13T09:30:45;18.10;1.00
62904;DHT22;49000;50.698;13.322;2023-10-13T09:33:11;18.20;1.00
62904;DHT22;49000;50.698;13.322;2023-10-13T09:35:46;18.20;1.00
62904;DHT22;49000;50.698;13.322;2023-10-13T09:38:15;18.20;1.00
62904;DHT22;49000;50.698;13.322;2023-10-13T09:40:42;18.20;1.00
62904;DHT22;49000;50.698;13.322;2023-10-13T09:43:16;18.10;1.00
62904;DHT22;49000;50.698;13.322;2023-10-13T09:45:46;18.30;1.00
62904;DHT22;49000;50.698;13.322;2023-10-13T09:48:39;18.40;1.00
62904;DHT22;49000;50.698;13.322;2023-10-13T09:51:18;18.40;1.00
62904;DHT22;49000;50.698;13.322;2023-10-13T09:54:08;18.40;1.00
62904;DHT22;49000;50.698;13.322;2023-10-13T09:56:46;18.30;1.00
62904;DHT22;49000;50.698;13.322;2023-10-13T09:59:22;18.30;1.00
62904;DHT22;49000;50.698;13.322;2023-10-13T10:01:51;18.30;1.00
62904;DHT22;49000;50.698;13.322;2023-10-13T10:04:24;18.30;1.00
62904;DHT22;49000;50.698;13.322;2023-10-13T10:09:19;18.30;1.00
62904;DHT22;49000;50.698;13.322;2023-10-13T10:17:08;18.40;1.00
62904;DHT22;49000;50.698;13.322;2023-10-13T10:19:48;18.40;1.00
62904;DHT22;49000;50.698;13.322;2023-10-13T10:22:24;18.50;1.00
62904;DHT22;49000;50.698;13.322;2023-10-13T10:25:03;18.50;1.00
62904;DHT22;49000;50.698;13.322;2023-10-13T10:27:32;18.40;1.00
62904;DHT22;49000;50.698;13.322;2023-10-13T10:29:58;18.40;1.00
62904;DHT22;49000;50.698;13.322;2023-10-13T10:32:37;18.40;1.00
62904;DHT22;49000;50.698;13.322;2023-10-13T10:35:09;18.40;1.00
62904;DHT22;49000;50.698;13.322;2023-10-13T10:37:40;18.40;1.00
62904;DHT22;49000;50.698;13.322;2023-10-13T10:40:15;18.40;1.00
62904;DHT22;49000;50.698;13.322;2023-10-13T10:43:01;18.40;1.00
62904;DHT22;49000;50.698;13.322;2023-10-13T10:45:28;18.40;1.00
62904;DHT22;49000;50.698;13.322;2023-10-13T10:47:58;18.40;1.00
62904;DHT22;49000;50.698;13.322;2023-10-13T10:50:27;18.40;1.00
62904;DHT22;49000;50.698;13.322;2023-10-13T10:53:04;18.40;1.00
62904;DHT22;49000;50.698;13.322;2023-10-13T10:55:35;18.50;1.00
62904;DHT22;49000;50.698;13.322;2023-10-13T10:58:02;18.60;1.00
62904;DHT22;49000;50.698;13.322;2023-10-13T11:00:30;18.80;1.00
62904;DHT22;49000;50.698;13.322;2023-10-13T11:03:11;18.80;1.00
62904;DHT22;49000;50.698;13.322;2023-10-13T11:05:46;18.90;1.00
62904;DHT22;49000;50.698;13.322;2023-10-13T11:08:25;19.00;1.00
62904;DHT22;49000;50.698;13.322;2023-10-13T11:10:58;19.10;1.00
62904;DHT22;49000;50.698;13.322;2023-10-13T11:13:25;19.20;1.00
62904;DHT22;49000;50.698;13.322;2023-10-13T11:15:56;19.20;1.00
62904;DHT22;49000;50.698;13.322;2023-10-13T11:18:30;19.10;1.00
62904;DHT22;49000;50.698;13.322;2023-10-13T11:21:06;19.20;1.00
62904;DHT22;49000;50.698;13.322;2023-10-13T11:23:33;19.10;1.00
62904;DHT22;49000;50.698;13.322;2023-10-13T11:26:02;19.10;1.00
62904;DHT22;49000;50.698;13.322;2023-10-13T11:28:29;19.10;1.00
62904;DHT22;49000;50.698;13.322;2023-10-13T11:30:57;19.20;1.00
62904;DHT22;49000;50.698;13.322;2023-10-13T11:33:36;19.20;1.00
62904;DHT22;49000;50.698;13.322;2023-10-13T11:36:01;19.20;99.90
62904;DHT22;49000;50.698;13.322;2023-10-13T11:38:33;19.20;99.90
62904;DHT22;49000;50.698;13.322;2023-10-13T11:41:11;19.20;99.90
62904;DHT22;49000;50.698;13.322;2023-10-13T11:43:48;19.30;99.90
62904;DHT22;49000;50.698;13.322;2023-10-13T11:49:07;19.40;99.90
62904;DHT22;49000;50.698;13.322;2023-10-13T11:51:47;19.50;99.90
62904;DHT22;49000;50.698;13.322;2023-10-13T11:54:20;19.70;99.90
62904;DHT22;49000;50.698;13.322;2023-10-13T11:56:48;19.80;99.90
62904;DHT22;49000;50.698;13.322;2023-10-13T11:59:14;19.80;99.90
62904;DHT22;49000;50.698;13.322;2023-10-13T12:01:50;19.90;99.90
62904;DHT22;49000;50.698;13.322;2023-10-13T12:04:35;20.00;99.90
62904;DHT22;49000;50.698;13.322;2023-10-13T12:07:21;20.10;99.90
62904;DHT22;49000;50.698;13.322;2023-10-13T12:09:53;20.20;99.90
62904;DHT22;49000;50.698;13.322;2023-10-13T12:12:22;20.40;99.90
62904;DHT22;49000;50.698;13.322;2023-10-13T12:14:48;20.40;99.90
62904;DHT22;49000;50.698;13.322;2023-10-13T12:17:32;20.30;99.90
62904;DHT22;49000;50.698;13.322;2023-10-13T12:20:01;20.40;99.90
62904;DHT22;49000;50.698;13.322;2023-10-13T12:22:30;20.40;99.90
62904;DHT22;49000;50.698;13.322;2023-10-13T12:25:07;20.40;99.90
62904;DHT22;49000;50.698;13.322;2023-10-13T12:27:59;20.40;99.90
62904;DHT22;49000;50.698;13.322;2023-10-13T12:30:39;20.50;99.90
62904;DHT22;49000;50.698;13.322;2023-10-13T12:33:23;20.60;99.90
62904;DHT22;49000;50.698;13.322;2023-10-13T12:36:00;20.70;99.90
62904;DHT22;49000;50.698;13.322;2023-10-13T12:38:35;20.70;99.90
62904;DHT22;49000;50.698;13.322;2023-10-13T12:41:19;20.90;99.90
62904;DHT22;49000;50.698;13.322;2023-10-13T12:44:04;21.10;99.90
62904;DHT22;49000;50.698;13.322;2023-10-13T12:46:48;21.10;99.90
62904;DHT22;49000;50.698;13.322;2023-10-13T12:49:33;21.10;99.90
62904;DHT22;49000;50.698;13.322;2023-10-13T12:52:12;21.40;99.90
62904;DHT22;49000;50.698;13.322;2023-10-13T12:54:48;21.50;99.90
62904;DHT22;49000;50.698;13.322;2023-10-13T12:57:26;21.70;99.90
62904;DHT22;49000;50.698;13.322;2023-10-13T12:59:53;21.80;99.90
62904;DHT22;49000;50.698;13.322;2023-10-13T13:02:22;21.80;99.90
62904;DHT22;49000;50.698;13.322;2023-10-13T13:04:50;21.80;99.90
62904;DHT22;49000;50.698;13.322;2023-10-13T13:07:42;21.80;99.90
62904;DHT22;49000;50.698;13.322;2023-10-13T13:10:18;21.70;99.90
62904;DHT22;49000;50.698;13.322;2023-10-13T13:12:43;21.70;99.90
62904;DHT22;49000;50.698;13.322;2023-10-13T13:15:09;21.70;99.90
62904;DHT22;49000;50.698;13.322;2023-10-13T13:17:37;21.90;99.90
62904;DHT22;49000;50.698;13.322;2023-10-13T13:20:05;22.00;99.90
62904;DHT22;49000;50.698;13.322;2023-10-13T13:22:37;22.10;99.90
62904;DHT22;49000;50.698;13.322;2023-10-13T13:25:03;22.30;99.90
62904;DHT22;49000;50.698;13.322;2023-10-13T13:27:33;22.50;99.90
62904;DHT22;49000;50.698;13.322;2023-10-13T13:29:58;22.70;99.90
62904;DHT22;49000;50.698;13.322;2023-10-13T13:32:24;22.80;99.90
62904;DHT22;49000;50.698;13.322;2023-10-13T13:34:52;22.70;99.90
62904;DHT22;49000;50.698;13.322;2023-10-13T13:37:29;22.60;99.90
62904;DHT22;49000;50.698;13.322;2023-10-13T13:39:54;22.60;99.90
62904;DHT22;49000;50.698;13.322;2023-10-13T13:42:20;22.60;99.90
62904;DHT22;49000;50.698;13.322;2023-10-13T13:44:46;22.70;99.90
62904;DHT22;49000;50.698;13.322;2023-10-13T13:47:12;22.80;99.90
62904;DHT22;49000;50.698;13.322;2023-10-13T13:49:39;22.80;99.90
62904;DHT22;49000;50.698;13.322;2023-10-13T13:52:09;22.70;99.90
62904;DHT22;49000;50.698;13.322;2023-10-13T13:54:35;22.70;99.90
62904;DHT22;49000;50.698;13.322;2023-10-13T13:57:00;22.50;99.90
62904;DHT22;49000;50.698;13.322;2023-10-13T13:59:26;22.60;99.90
62904;DHT22;49000;50.698;13.322;2023-10-13T14:01:51;22.50;99.90
62904;DHT22;49000;50.698;13.322;2023-10-13T14:04:18;22.40;99.90
62904;DHT22;49000;50.698;13.322;2023-10-13T14:06:44;22.40;99.90
62904;DHT22;49000;50.698;13.322;2023-10-13T14:09:10;22.30;99.90
62904;DHT22;49000;50.698;13.322;2023-10-13T14:11:41;22.20;99.90
62904;DHT22;49000;50.698;13.322;2023-10-13T14:14:26;22.40;99.90
62904;DHT22;49000;50.698;13.322;2023-10-13T14:16:52;22.50;99.90
62904;DHT22;49000;50.698;13.322;2023-10-13T14:19:19;22.50;99.90
62904;DHT22;49000;50.698;13.322;2023-10-13T14:21:52;22.30;99.90
62904;DHT22;49000;50.698;13.322;2023-10-13T14:24:19;22.20;99.90
62904;DHT22;49000;50.698;13.322;2023-10-13T14:26:53;22.20;99.90
62904;DHT22;49000;50.698;13.322;2023-10-13T14:29:18;22.30;99.90
62904;DHT22;49000;50.698;13.322;2023-10-13T14:31:44;22.40;99.90
62904;DHT22;49000;50.698;13.322;2023-10-13T14:34:09;22.40;99.90
62904;DHT22;49000;50.698;13.322;2023-10-13T14:36:36;22.40;99.90
62904;DHT22;49000;50.698;13.322;2023-10-13T14:39:04;22.40;99.90
62904;DHT22;49000;50.698;13.322;2023-10-13T14:41:35;22.30;99.90
62904;DHT22;49000;50.698;13.322;2023-10-13T14:44:00;22.30;99.90
62904;DHT22;49000;50.698;13.322;2023-10-13T14:46:30;22.40;99.90
62904;DHT22;49000;50.698;13.322;2023-10-13T14:48:56;22.40;99.90
62904;DHT22;49000;50.698;13.322;2023-10-13T14:51:22;22.40;99.90
62904;DHT22;49000;50.698;13.322;2023-10-13T14:53:47;22.30;99.90
62904;DHT22;49000;50.698;13.322;2023-10-13T14:56:14;22.30;99.90
62904;DHT22;49000;50.698;13.322;2023-10-13T14:58:41;22.20;99.90
62904;DHT22;49000;50.698;13.322;2023-10-13T15:01:25;22.10;99.90
62904;DHT22;49000;50.698;13.322;2023-10-13T15:03:53;22.00;99.90
62904;DHT22;49000;50.698;13.322;2023-10-13T15:06:26;21.90;99.90
62904;DHT22;49000;50.698;13.322;2023-10-13T15:08:55;21.80;99.90
62904;DHT22;49000;50.698;13.322;2023-10-13T15:11:22;21.80;99.90
62904;DHT22;49000;50.698;13.322;2023-10-13T15:13:54;21.70;99.90
62904;DHT22;49000;50.698;13.322;2023-10-13T15:16:22;21.60;99.90
62904;DHT22;49000;50.698;13.322;2023-10-13T15:18:49;21.60;99.90
62904;DHT22;49000;50.698;13.322;2023-10-13T15:21:25;21.60;99.90
62904;DHT22;49000;50.698;13.322;2023-10-13T15:23:57;21.60;99.90
62904;DHT22;49000;50.698;13.322;2023-10-13T15:26:32;21.50;99.90
62904;DHT22;49000;50.698;13.322;2023-10-13T15:29:07;21.50;99.90
62904;DHT22;49000;50.698;13.322;2023-10-13T15:31:40;21.30;99.90
62904;DHT22;49000;50.698;13.322;2023-10-13T15:34:11;21.30;99.90
62904;DHT22;49000;50.698;13.322;2023-10-13T15:36:42;21.20;99.90
62904;DHT22;49000;50.698;13.322;2023-10-13T15:39:11;21.20;99.90
62904;DHT22;49000;50.698;13.322;2023-10-13T15:41:37;21.30;99.90
62904;DHT22;49000;50.698;13.322;2023-10-13T15:44:08;21.30;99.90
62904;DHT22;49000;50.698;13.322;2023-10-13T15:46:36;21.30;99.90
62904;DHT22;49000;50.698;13.322;2023-10-13T15:49:01;21.30;99.90
62904;DHT22;49000;50.698;13.322;2023-10-13T15:51:32;21.10;99.90
62904;DHT22;49000;50.698;13.322;2023-10-13T15:53:58;21.00;99.90
62904;DHT22;49000;50.698;13.322;2023-10-13T15:56:25;21.00;99.90
62904;DHT22;49000;50.698;13.322;2023-10-13T15:58:51;20.80;99.90
62904;DHT22;49000;50.698;13.322;2023-10-13T16:01:17;20.80;99.90
62904;DHT22;49000;50.698;13.322;2023-10-13T16:03:45;20.60;99.90
62904;DHT22;49000;50.698;13.322;2023-10-13T16:06:17;20.60;99.90
62904;DHT22;49000;50.698;13.322;2023-10-13T16:08:43;20.50;99.90
62904;DHT22;49000;50.698;13.322;2023-10-13T16:11:10;20.40;99.90